createdAt,value
2018-07-24T00:02:21.374Z,19.64
2018-07-24T00:04:52.977Z,19.69
2018-07-24T00:07:21.888Z,19.67
2018-07-24T00:09:50.968Z,19.72
2018-07-24T00:12:20.697Z,19.41
2018-07-24T00:14:49.954Z,19.37
2018-07-24T00:17:19.189Z,19.64
2018-07-24T00:19:48.174Z,19.60
2018-07-24T00:22:17.405Z,19.76
2018-07-24T00:24:47.589Z,19.63
2018-07-24T00:27:16.590Z,19.37
2018-07-24T00:29:45.545Z,19.38
2018-07-24T00:32:15.459Z,19.35
2018-07-24T00:34:44.288Z,19.26
2018-07-24T00:37:15.073Z,19.17
2018-07-24T00:39:45.595Z,19.30
2018-07-24T00:42:15.808Z,19.38
2018-07-24T00:44:45.033Z,18.83
2018-07-24T00:47:18.608Z,18.92
2018-07-24T00:49:47.408Z,18.73
2018-07-24T00:52:16.537Z,18.92
2018-07-24T00:54:45.773Z,19.06
2018-07-24T00:57:15.553Z,18.94
2018-07-24T00:59:45.453Z,18.98
2018-07-24T01:02:15.249Z,19.01
2018-07-24T01:04:45.621Z,18.86
2018-07-24T01:07:16.895Z,18.79
2018-07-24T01:09:52.596Z,18.73
2018-07-24T01:12:22.890Z,18.63
2018-07-24T01:14:56.125Z,18.58
2018-07-24T01:17:25.768Z,18.19
2018-07-24T01:19:54.352Z,18.51
2018-07-24T01:22:23.104Z,18.47
2018-07-24T01:24:51.633Z,18.55
2018-07-24T01:27:20.265Z,18.50
2018-07-24T01:29:48.792Z,18.51
2018-07-24T01:32:17.415Z,18.67
2018-07-24T01:34:45.953Z,18.60
2018-07-24T01:37:14.528Z,18.59
2018-07-24T01:39:43.360Z,18.56
2018-07-24T01:42:11.928Z,18.61
2018-07-24T01:44:40.461Z,18.52
2018-07-24T01:47:09.036Z,18.56
2018-07-24T01:49:37.569Z,18.44
2018-07-24T01:52:06.147Z,18.52
2018-07-24T01:54:34.671Z,18.31
2018-07-24T01:57:03.244Z,18.18
2018-07-24T01:59:31.779Z,18.32
2018-07-24T02:02:00.343Z,18.37
2018-07-24T02:04:28.884Z,18.42
2018-07-24T02:06:57.512Z,18.12
2018-07-24T02:09:26.089Z,18.12
2018-07-24T02:11:54.672Z,18.24
2018-07-24T02:14:23.225Z,18.28
2018-07-24T02:16:51.816Z,17.71
2018-07-24T02:19:20.351Z,17.93
2018-07-24T02:21:48.953Z,18.10
2018-07-24T02:24:17.492Z,18.19
2018-07-24T02:26:46.081Z,18.09
2018-07-24T02:29:14.634Z,17.57
2018-07-24T02:31:43.338Z,17.49
2018-07-24T02:34:12.188Z,17.83
2018-07-24T02:36:40.768Z,17.89
2018-07-24T02:39:12.557Z,17.67
2018-07-24T02:41:41.121Z,17.85
2018-07-24T02:44:10.225Z,17.80
2018-07-24T02:46:38.806Z,17.70
2018-07-24T02:49:08.084Z,17.63
2018-07-24T02:51:36.740Z,17.51
2018-07-24T02:54:05.556Z,17.63
2018-07-24T02:56:34.124Z,17.67
2018-07-24T02:59:02.673Z,17.72
2018-07-24T03:01:31.245Z,17.78
2018-07-24T03:03:59.905Z,17.78
2018-07-24T03:06:28.436Z,17.57
2018-07-24T03:08:56.984Z,17.59
2018-07-24T03:11:25.586Z,17.72
2018-07-24T03:13:54.144Z,17.72
2018-07-24T03:16:22.688Z,17.78
2018-07-24T03:18:51.308Z,17.70
2018-07-24T03:21:19.829Z,17.38
2018-07-24T03:23:48.404Z,17.41
2018-07-24T03:26:16.921Z,17.69
2018-07-24T03:28:45.467Z,17.61
2018-07-24T03:31:13.994Z,17.49
2018-07-24T03:33:42.544Z,17.33
2018-07-24T03:36:11.168Z,17.21
2018-07-24T03:38:39.764Z,17.05
2018-07-24T03:41:08.376Z,17.10
2018-07-24T03:43:36.944Z,17.33
2018-07-24T03:46:06.081Z,17.43
2018-07-24T03:48:34.646Z,17.38
2018-07-24T03:51:03.181Z,17.40
2018-07-24T03:53:31.780Z,17.34
2018-07-24T03:56:00.300Z,16.97
2018-07-24T03:58:28.873Z,16.97
2018-07-24T04:00:57.390Z,16.88
2018-07-24T04:03:26.800Z,16.95
2018-07-24T04:05:55.401Z,17.05
2018-07-24T04:08:23.992Z,17.02
2018-07-24T04:10:52.532Z,17.13
2018-07-24T04:13:21.172Z,17.10
2018-07-24T04:15:49.701Z,17.23
2018-07-24T04:18:18.250Z,17.17
2018-07-24T04:20:46.777Z,17.27
2018-07-24T04:23:15.322Z,17.09
2018-07-24T04:25:43.846Z,16.97
2018-07-24T04:28:13.328Z,17.01
2018-07-24T04:30:41.997Z,17.00
2018-07-24T04:33:10.560Z,16.94
2018-07-24T04:35:39.380Z,16.88
2018-07-24T04:38:07.925Z,17.19
2018-07-24T04:40:36.488Z,17.21
2018-07-24T04:43:05.068Z,17.28
2018-07-24T04:45:33.600Z,17.32
2018-07-24T04:48:02.148Z,17.46
2018-07-24T04:50:30.953Z,17.57
2018-07-24T04:52:59.541Z,17.43
2018-07-24T04:55:28.096Z,17.37
2018-07-24T04:57:57.545Z,17.62
2018-07-24T05:00:26.106Z,17.60
2018-07-24T05:02:54.635Z,17.45
2018-07-24T05:05:23.201Z,17.47
2018-07-24T05:07:51.725Z,17.46
2018-07-24T05:10:20.404Z,17.42
2018-07-24T05:12:48.913Z,17.72
2018-07-24T05:15:17.484Z,17.74
2018-07-24T05:17:46.009Z,17.84
2018-07-24T05:20:14.577Z,17.82
2018-07-24T05:22:43.089Z,17.92
2018-07-24T05:25:11.696Z,18.08
2018-07-24T05:27:40.224Z,18.16
2018-07-24T05:30:09.172Z,18.32
2018-07-24T05:32:37.692Z,18.39
2018-07-24T05:35:06.660Z,18.19
2018-07-24T05:37:35.221Z,18.46
2018-07-24T05:40:04.049Z,18.59
2018-07-24T05:42:32.605Z,18.39
2018-07-24T05:45:01.153Z,18.49
2018-07-24T05:47:31.274Z,18.55
2018-07-24T05:50:01.833Z,18.65
2018-07-24T05:52:30.471Z,18.83
2018-07-24T05:54:59.028Z,18.92
2018-07-24T05:57:27.876Z,19.05
2018-07-24T05:59:56.423Z,19.17
2018-07-24T06:02:25.038Z,19.19
2018-07-24T06:04:53.596Z,19.16
2018-07-24T06:07:25.969Z,19.25
2018-07-24T06:09:56.784Z,19.48
2018-07-24T06:12:25.408Z,19.64
2018-07-24T06:14:53.989Z,19.71
2018-07-24T06:17:22.613Z,19.89
2018-07-24T06:19:51.156Z,19.89
2018-07-24T06:22:19.680Z,19.92
2018-07-24T06:24:48.220Z,20.00
2018-07-24T06:27:16.716Z,20.06
2018-07-24T06:29:45.267Z,20.25
2018-07-24T06:32:14.303Z,20.37
2018-07-24T06:34:42.856Z,20.40
2018-07-24T06:37:12.369Z,20.28
2018-07-24T06:39:40.977Z,20.37
2018-07-24T06:42:15.662Z,20.57
2018-07-24T06:44:44.469Z,20.69
2018-07-24T06:47:13.351Z,20.81
2018-07-24T06:49:41.903Z,20.91
2018-07-24T06:52:15.423Z,21.01
2018-07-24T06:54:44.533Z,21.04
2018-07-24T06:57:13.064Z,21.20
2018-07-24T06:59:42.356Z,21.29
2018-07-24T07:02:11.067Z,21.39
2018-07-24T07:04:39.593Z,21.54
2018-07-24T07:07:08.125Z,21.66
2018-07-24T07:09:36.722Z,21.73
2018-07-24T07:12:05.253Z,21.82
2018-07-24T07:14:33.772Z,21.97
2018-07-24T07:17:02.340Z,22.00
2018-07-24T07:19:30.852Z,22.18
2018-07-24T07:21:59.436Z,22.27
2018-07-24T07:24:28.536Z,22.43
2018-07-24T07:26:57.081Z,22.61
2018-07-24T07:29:25.627Z,22.72
2018-07-24T07:31:54.196Z,22.90
2018-07-24T07:34:22.720Z,23.00
2018-07-24T07:36:51.276Z,23.11
2018-07-24T07:39:19.901Z,23.23
2018-07-24T07:41:48.506Z,23.28
2018-07-24T07:44:17.021Z,23.39
2018-07-24T07:46:45.583Z,23.65
2018-07-24T07:49:14.109Z,23.70
2018-07-24T07:51:42.669Z,23.87
2018-07-24T07:54:11.192Z,23.93
2018-07-24T07:56:39.741Z,24.09
2018-07-24T07:59:13.564Z,24.06
2018-07-24T08:01:42.267Z,24.46
2018-07-24T08:04:10.831Z,24.42
2018-07-24T08:06:39.479Z,24.47
2018-07-24T08:09:09.324Z,24.60
2018-07-24T08:11:37.948Z,24.58
2018-07-24T08:14:06.481Z,24.62
2018-07-24T08:16:39.835Z,24.71
2018-07-24T08:19:08.374Z,24.69
2018-07-24T08:21:36.992Z,24.88
2018-07-24T08:24:05.622Z,24.90
2018-07-24T08:26:37.992Z,25.07
2018-07-24T08:29:06.877Z,25.22
2018-07-24T08:31:35.428Z,25.30
2018-07-24T08:34:09.075Z,25.48
2018-07-24T08:36:37.822Z,25.42
2018-07-24T08:39:09.307Z,25.54
2018-07-24T08:41:37.960Z,25.75
2018-07-24T08:44:06.524Z,25.69
2018-07-24T08:46:35.152Z,25.65
2018-07-24T08:49:03.711Z,25.70
2018-07-24T08:51:32.581Z,25.83
2018-07-24T08:54:01.513Z,25.98
2018-07-24T08:56:29.727Z,25.97
2018-07-24T08:58:58.805Z,26.06
2018-07-24T09:01:33.926Z,26.47
2018-07-24T09:04:02.719Z,26.69
2018-07-24T09:06:31.313Z,26.83
2018-07-24T09:08:59.856Z,26.90
2018-07-24T09:11:28.992Z,26.95
2018-07-24T09:13:57.537Z,27.13
2018-07-24T09:16:26.096Z,27.07
2018-07-24T09:18:54.917Z,27.17
2018-07-24T09:21:29.026Z,27.06
2018-07-24T09:23:57.740Z,27.40
2018-07-24T09:26:26.321Z,27.28
2018-07-24T09:28:54.856Z,27.56
2018-07-24T09:31:23.496Z,27.54
2018-07-24T09:33:52.030Z,27.83
2018-07-24T09:36:20.609Z,27.60
2018-07-24T09:38:49.192Z,27.62
2018-07-24T09:41:17.784Z,27.62
2018-07-24T09:43:46.341Z,28.09
2018-07-24T09:46:14.880Z,27.90
2018-07-24T09:48:48.012Z,27.91
2018-07-24T09:51:17.083Z,28.14
2018-07-24T09:53:46.372Z,28.06
2018-07-24T09:56:15.620Z,28.17
2018-07-24T09:58:45.313Z,27.89
2018-07-24T10:01:19.913Z,27.84
2018-07-24T10:03:48.834Z,27.90
2018-07-24T10:06:18.634Z,28.18
2018-07-24T10:08:47.735Z,28.29
2018-07-24T10:11:22.808Z,28.20
2018-07-24T10:13:51.832Z,28.25
2018-07-24T10:16:20.608Z,28.61
2018-07-24T10:18:52.223Z,28.93
2018-07-24T10:21:21.247Z,29.12
2018-07-24T10:23:49.986Z,28.78
2018-07-24T10:26:21.914Z,28.69
2018-07-24T10:28:51.090Z,28.57
2018-07-24T10:31:19.756Z,28.73
2018-07-24T10:33:54.357Z,29.01
2018-07-24T10:36:24.062Z,28.86
2018-07-24T10:38:54.078Z,28.81
2018-07-24T10:41:25.806Z,28.97
2018-07-24T10:43:58.254Z,28.90
2018-07-24T10:46:35.637Z,29.26
2018-07-24T10:49:10.343Z,29.61
2018-07-24T10:51:39.850Z,29.27
2018-07-24T10:54:12.917Z,29.66
2018-07-24T10:56:48.509Z,29.38
2018-07-24T10:59:17.272Z,29.54
2018-07-24T11:01:47.951Z,29.77
2018-07-24T11:04:16.697Z,29.38
2018-07-24T11:06:46.242Z,29.44
2018-07-24T11:09:15.593Z,29.46
2018-07-24T11:11:47.690Z,29.53
2018-07-24T11:14:17.449Z,29.88
2018-07-24T11:16:47.793Z,29.94
2018-07-24T11:19:18.754Z,29.79
2018-07-24T11:21:48.062Z,30.11
2018-07-24T11:24:19.647Z,30.31
2018-07-24T11:26:48.816Z,30.57
2018-07-24T11:29:18.620Z,30.55
2018-07-24T11:31:48.132Z,30.81
2018-07-24T11:34:16.713Z,30.62
2018-07-24T11:36:45.805Z,30.87
2018-07-24T11:39:14.418Z,30.58
2018-07-24T11:41:42.976Z,30.36
2018-07-24T11:44:12.506Z,30.69
2018-07-24T11:46:41.575Z,31.18
2018-07-24T11:49:10.294Z,31.21
2018-07-24T11:51:39.841Z,31.08
2018-07-24T11:54:08.483Z,30.85
2018-07-24T11:56:37.759Z,31.12
2018-07-24T11:59:07.040Z,31.29
2018-07-24T12:01:35.568Z,31.18
2018-07-24T12:04:04.129Z,30.87
2018-07-24T12:06:32.713Z,30.90
2018-07-24T12:09:01.273Z,30.77
2018-07-24T12:11:30.277Z,31.28
2018-07-24T12:13:59.692Z,31.29
2018-07-24T12:16:28.423Z,31.38
2018-07-24T12:18:57.341Z,31.13
2018-07-24T12:21:26.912Z,31.85
2018-07-24T12:23:55.857Z,31.14
2018-07-24T12:26:24.496Z,31.35
2018-07-24T12:28:53.048Z,31.59
2018-07-24T12:31:21.652Z,31.96
2018-07-24T12:33:54.439Z,31.68
2018-07-24T12:36:23.648Z,30.81
2018-07-24T12:38:52.831Z,30.69
2018-07-24T12:41:22.088Z,30.97
2018-07-24T12:43:52.544Z,30.92
2018-07-24T12:46:21.581Z,30.88
2018-07-24T12:48:50.168Z,31.45
2018-07-24T12:51:18.977Z,31.41
2018-07-24T12:53:48.208Z,31.63
2018-07-24T12:56:19.876Z,31.55
2018-07-24T12:58:49.064Z,31.89
2018-07-24T13:01:17.796Z,32.14
2018-07-24T13:03:46.968Z,32.32
2018-07-24T13:06:17.162Z,32.33
2018-07-24T13:08:46.025Z,32.35
2018-07-24T13:11:15.033Z,32.44
2018-07-24T13:13:45.512Z,32.27
2018-07-24T13:16:15.294Z,32.23
2018-07-24T13:18:50.254Z,32.55
2018-07-24T13:21:19.698Z,32.38
2018-07-24T13:23:48.867Z,32.30
2018-07-24T13:26:17.437Z,32.48
2018-07-24T13:28:46.439Z,32.50
2018-07-24T13:31:15.065Z,31.98
2018-07-24T13:33:44.104Z,32.25
2018-07-24T13:36:14.397Z,32.56
2018-07-24T13:38:44.362Z,32.99
2018-07-24T13:41:14.802Z,32.93
2018-07-24T13:43:43.865Z,32.89
2018-07-24T13:46:13.458Z,33.05
2018-07-24T13:48:42.002Z,32.57
2018-07-24T13:51:10.809Z,31.82
2018-07-24T13:53:39.360Z,32.32
2018-07-24T13:56:08.016Z,32.58
2018-07-24T13:58:36.568Z,32.87
2018-07-24T14:01:06.284Z,32.91
2018-07-24T14:03:34.942Z,32.65
2018-07-24T14:06:03.762Z,32.43
2018-07-24T14:08:32.378Z,32.63
2018-07-24T14:11:00.917Z,32.81
2018-07-24T14:13:30.680Z,32.94
2018-07-24T14:15:59.374Z,33.27
2018-07-24T14:18:27.948Z,33.39
2018-07-24T14:20:56.524Z,33.49
2018-07-24T14:23:25.069Z,33.28
2018-07-24T14:25:53.680Z,33.01
2018-07-24T14:28:22.236Z,32.92
2018-07-24T14:30:50.833Z,33.02
2018-07-24T14:33:19.452Z,33.06
2018-07-24T14:35:48.084Z,33.00
2018-07-24T14:38:16.780Z,33.35
2018-07-24T14:40:45.485Z,33.45
2018-07-24T14:43:14.020Z,33.28
2018-07-24T14:45:42.620Z,33.78
2018-07-24T14:48:11.160Z,33.67
2018-07-24T14:50:39.753Z,33.45
2018-07-24T14:53:08.296Z,33.87
2018-07-24T14:55:36.873Z,33.46
2018-07-24T14:58:05.471Z,33.40
2018-07-24T15:00:34.117Z,33.53
2018-07-24T15:03:02.673Z,33.51
2018-07-24T15:05:31.276Z,33.37
2018-07-24T15:07:59.808Z,33.24
2018-07-24T15:10:28.348Z,32.82
2018-07-24T15:12:56.920Z,33.05
2018-07-24T15:15:25.465Z,33.00
2018-07-24T15:17:54.032Z,33.42
2018-07-24T15:20:22.836Z,33.81
2018-07-24T15:22:51.420Z,34.12
2018-07-24T15:25:20.276Z,34.19
2018-07-24T15:27:48.836Z,33.92
2018-07-24T15:30:17.387Z,32.79
2018-07-24T15:32:45.955Z,33.27
2018-07-24T15:35:14.616Z,33.21
2018-07-24T15:37:46.767Z,33.35
2018-07-24T15:40:15.381Z,33.04
2018-07-24T15:42:43.960Z,33.09
2018-07-24T15:45:13.092Z,33.16
2018-07-24T15:47:41.832Z,33.03
2018-07-24T15:50:12.877Z,33.16
2018-07-24T15:52:41.473Z,32.75
2018-07-24T15:55:10.072Z,32.85
2018-07-24T15:57:38.695Z,32.80
2018-07-24T16:00:07.348Z,33.11
2018-07-24T16:02:36.103Z,32.76
2018-07-24T16:05:05.040Z,32.86
2018-07-24T16:07:33.609Z,32.69
2018-07-24T16:10:02.325Z,32.58
2018-07-24T16:12:31.437Z,32.15
2018-07-24T16:14:59.982Z,32.13
2018-07-24T16:17:28.552Z,32.04
2018-07-24T16:19:57.094Z,32.03
2018-07-24T16:22:25.672Z,31.86
2018-07-24T16:24:54.289Z,32.09
2018-07-24T16:27:22.896Z,32.04
2018-07-24T16:29:51.455Z,31.99
2018-07-24T16:32:20.149Z,32.00
2018-07-24T16:34:48.684Z,31.94
2018-07-24T16:37:17.371Z,32.00
2018-07-24T16:39:45.881Z,32.83
2018-07-24T16:42:14.444Z,33.02
2018-07-24T16:44:43.160Z,33.27
2018-07-24T16:47:12.109Z,32.78
2018-07-24T16:49:41.968Z,32.54
2018-07-24T16:52:11.482Z,33.03
2018-07-24T16:54:40.064Z,33.01
2018-07-24T16:57:08.704Z,33.77
2018-07-24T16:59:37.343Z,33.64
2018-07-24T17:02:05.944Z,33.87
2018-07-24T17:04:34.495Z,37.49
2018-07-24T17:07:03.088Z,39.59
2018-07-24T17:09:32.552Z,39.60
2018-07-24T17:12:01.105Z,40.56
2018-07-24T17:14:29.712Z,40.71
2018-07-24T17:16:58.576Z,40.91
2018-07-24T17:19:27.469Z,39.59
2018-07-24T17:21:56.061Z,41.02
2018-07-24T17:24:24.692Z,40.54
2018-07-24T17:26:53.231Z,41.26
2018-07-24T17:29:21.813Z,41.66
2018-07-24T17:31:50.519Z,41.10
2018-07-24T17:34:19.337Z,39.91
2018-07-24T17:36:49.061Z,40.39
2018-07-24T17:39:17.933Z,40.90
2018-07-24T17:41:46.520Z,40.04
2018-07-24T17:44:15.085Z,40.22
2018-07-24T17:46:46.968Z,40.17
2018-07-24T17:49:19.190Z,40.34
2018-07-24T17:51:54.751Z,39.11
2018-07-24T17:54:23.558Z,38.85
2018-07-24T17:56:52.109Z,38.99
2018-07-24T17:59:21.166Z,39.17
2018-07-24T18:01:49.708Z,39.59
2018-07-24T18:04:18.273Z,38.53
2018-07-24T18:06:46.792Z,37.26
2018-07-24T18:09:15.376Z,38.23
2018-07-24T18:11:44.088Z,37.52
2018-07-24T18:14:12.661Z,36.55
2018-07-24T18:16:41.220Z,34.94
2018-07-24T18:19:09.826Z,34.04
2018-07-24T18:21:38.348Z,33.89
2018-07-24T18:24:07.267Z,34.33
2018-07-24T18:26:35.836Z,33.94
2018-07-24T18:29:04.439Z,33.77
2018-07-24T18:31:32.982Z,33.29
2018-07-24T18:34:01.550Z,33.04
2018-07-24T18:36:30.076Z,32.67
2018-07-24T18:38:58.641Z,32.40
2018-07-24T18:41:27.205Z,31.96
2018-07-24T18:43:55.785Z,31.77
2018-07-24T18:46:25.302Z,31.34
2018-07-24T18:48:58.858Z,30.82
2018-07-24T18:51:27.416Z,30.61
2018-07-24T18:53:56.292Z,30.32
2018-07-24T18:56:24.828Z,29.99
2018-07-24T18:58:53.444Z,29.84
2018-07-24T19:01:21.964Z,29.57
2018-07-24T19:03:50.544Z,29.42
2018-07-24T19:06:19.099Z,28.93
2018-07-24T19:08:47.676Z,28.81
2018-07-24T19:11:16.230Z,28.86
2018-07-24T19:13:44.828Z,28.25
2018-07-24T19:16:13.363Z,28.10
2018-07-24T19:18:41.945Z,28.01
2018-07-24T19:21:10.508Z,27.85
2018-07-24T19:23:39.061Z,27.83
2018-07-24T19:26:07.652Z,27.57
2018-07-24T19:28:36.200Z,27.35
2018-07-24T19:31:05.977Z,27.13
2018-07-24T19:33:34.558Z,26.71
2018-07-24T19:36:03.134Z,26.67
2018-07-24T19:38:31.682Z,26.51
2018-07-24T19:41:00.281Z,26.06
2018-07-24T19:43:28.828Z,26.14
2018-07-24T19:45:57.400Z,25.81
2018-07-24T19:48:25.932Z,25.73
2018-07-24T19:50:54.505Z,25.70
2018-07-24T19:53:23.069Z,25.85
2018-07-24T19:55:51.672Z,25.67
2018-07-24T19:58:20.220Z,25.60
2018-07-24T20:00:48.797Z,25.52
2018-07-24T20:03:17.344Z,25.31
2018-07-24T20:05:45.928Z,24.99
2018-07-24T20:08:14.501Z,24.96
2018-07-24T20:10:43.090Z,25.00
2018-07-24T20:13:11.633Z,24.86
2018-07-24T20:15:40.436Z,24.62
2018-07-24T20:18:09.004Z,24.59
2018-07-24T20:20:37.587Z,24.55
2018-07-24T20:23:07.384Z,24.42
2018-07-24T20:25:37.012Z,24.40
2018-07-24T20:28:05.672Z,24.17
2018-07-24T20:30:34.309Z,24.05
2018-07-24T20:33:02.865Z,24.18
2018-07-24T20:35:31.619Z,24.11
2018-07-24T20:38:00.013Z,24.02
2018-07-24T20:40:28.616Z,23.84
2018-07-24T20:42:57.170Z,23.78
2018-07-24T20:45:25.841Z,23.57
2018-07-24T20:47:54.372Z,23.61
2018-07-24T20:50:23.011Z,23.81
2018-07-24T20:52:51.567Z,23.86
2018-07-24T20:55:20.160Z,23.73
2018-07-24T20:57:48.688Z,23.58
2018-07-24T21:00:17.261Z,23.40
2018-07-24T21:02:45.799Z,23.33
2018-07-24T21:05:14.361Z,23.20
2018-07-24T21:07:42.885Z,22.88
2018-07-24T21:10:16.832Z,22.64
2018-07-24T21:12:46.568Z,22.84
2018-07-24T21:15:15.220Z,23.14
2018-07-24T21:17:44.016Z,23.24
2018-07-24T21:20:12.604Z,23.30
2018-07-24T21:22:41.200Z,23.09
2018-07-24T21:25:09.766Z,23.20
2018-07-24T21:27:38.364Z,23.09
2018-07-24T21:30:08.155Z,22.98
2018-07-24T21:32:37.297Z,22.90
2018-07-24T21:35:05.909Z,22.88
2018-07-24T21:37:34.707Z,22.83
2018-07-24T21:40:03.303Z,22.49
2018-07-24T21:42:31.985Z,22.58
2018-07-24T21:45:00.476Z,22.61
2018-07-24T21:47:29.057Z,22.56
2018-07-24T21:50:00.320Z,22.23
2018-07-24T21:52:28.948Z,22.38
2018-07-24T21:54:57.564Z,22.16
2018-07-24T21:57:26.145Z,22.23
2018-07-24T21:59:54.737Z,22.32
2018-07-24T22:02:23.328Z,22.33
2018-07-24T22:04:52.161Z,22.23
2018-07-24T22:07:21.131Z,22.36
2018-07-24T22:09:49.693Z,22.31
2018-07-24T22:12:18.264Z,22.11
2018-07-24T22:14:46.911Z,21.86
2018-07-24T22:17:16.313Z,21.58
2018-07-24T22:19:46.563Z,21.44
2018-07-24T22:22:15.503Z,21.74
2018-07-24T22:24:44.317Z,21.85
2018-07-24T22:27:12.888Z,21.65
2018-07-24T22:29:41.447Z,21.68
2018-07-24T22:32:15.474Z,21.52
2018-07-24T22:34:48.945Z,20.82
2018-07-24T22:37:20.527Z,21.31
2018-07-24T22:39:51.303Z,21.63
2018-07-24T22:42:25.531Z,21.62
2018-07-24T22:44:56.239Z,21.76
2018-07-24T22:47:26.309Z,21.65
2018-07-24T22:49:58.023Z,21.73
2018-07-24T22:52:29.046Z,21.62
2018-07-24T22:55:00.033Z,21.51
2018-07-24T22:57:32.886Z,21.56
2018-07-24T23:00:05.680Z,21.53
2018-07-24T23:02:37.702Z,21.40
2018-07-24T23:05:08.735Z,21.37
2018-07-24T23:07:40.936Z,21.26
2018-07-24T23:10:12.532Z,20.75
2018-07-24T23:12:47.940Z,20.91
2018-07-24T23:15:17.282Z,21.07
2018-07-24T23:17:50.773Z,21.22
2018-07-24T23:20:19.714Z,21.23
2018-07-24T23:22:49.257Z,20.99
2018-07-24T23:25:18.099Z,20.92
2018-07-24T23:27:47.180Z,20.77
2018-07-24T23:30:17.311Z,20.73
2018-07-24T23:32:45.869Z,20.90
2018-07-24T23:35:15.961Z,20.40
2018-07-24T23:37:45.940Z,20.42
2018-07-24T23:40:19.505Z,20.60
2018-07-24T23:42:54.253Z,20.50
2018-07-24T23:45:24.729Z,20.49
2018-07-24T23:47:58.685Z,20.53
2018-07-24T23:50:28.672Z,20.22
2018-07-24T23:52:58.134Z,20.13
2018-07-24T23:55:30.978Z,20.22
2018-07-24T23:58:01.976Z,20.13
